createdAt,value
2018-11-04T00:00:30.604Z,28.63
2018-11-04T00:01:08.651Z,28.66
2018-11-04T00:01:47.338Z,28.69
2018-11-04T00:02:25.480Z,28.73
2018-11-04T00:03:03.417Z,28.76
2018-11-04T00:03:41.612Z,28.78
2018-11-04T00:04:19.801Z,28.81
2018-11-04T00:04:57.874Z,28.83
2018-11-04T00:05:35.779Z,28.88
2018-11-04T00:06:13.966Z,28.88
2018-11-04T00:06:52.069Z,28.94
2018-11-04T00:07:30.079Z,28.97
2018-11-04T00:08:07.987Z,29.00
2018-11-04T00:08:47.581Z,29.02
2018-11-04T00:09:25.638Z,29.05
2018-11-04T00:10:03.568Z,29.06
2018-11-04T00:10:41.712Z,29.10
2018-11-04T00:11:19.588Z,29.13
2018-11-04T00:11:58.361Z,29.17
2018-11-04T00:12:36.376Z,29.20
2018-11-04T00:13:14.449Z,29.22
2018-11-04T00:13:52.394Z,29.25
2018-11-04T00:14:31.322Z,29.29
2018-11-04T00:15:09.685Z,29.32
2018-11-04T00:15:47.662Z,29.35
2018-11-04T00:16:25.606Z,29.37
2018-11-04T00:17:03.580Z,29.40
2018-11-04T00:17:42.222Z,29.44
2018-11-04T00:18:20.279Z,29.48
2018-11-04T00:18:58.135Z,29.52
2018-11-04T00:19:36.134Z,29.55
2018-11-04T00:20:16.316Z,29.57
2018-11-04T00:20:54.633Z,29.63
2018-11-04T00:21:32.693Z,29.66
2018-11-04T00:22:10.858Z,29.66
2018-11-04T00:22:48.915Z,29.71
2018-11-04T00:23:26.830Z,29.76
2018-11-04T00:24:04.820Z,29.79
2018-11-04T00:24:42.810Z,29.83
2018-11-04T00:25:20.756Z,29.88
2018-11-04T00:25:58.695Z,29.93
2018-11-04T00:26:36.663Z,29.96
2018-11-04T00:27:14.605Z,29.99
2018-11-04T00:27:52.695Z,30.03
2018-11-04T00:28:30.731Z,30.07
2018-11-04T00:29:08.612Z,30.11
2018-11-04T00:29:46.742Z,30.11
2018-11-04T00:30:25.748Z,30.20
2018-11-04T00:31:03.647Z,30.24
2018-11-04T00:31:41.537Z,30.26
2018-11-04T00:32:19.443Z,30.27
2018-11-04T00:32:57.393Z,30.31
2018-11-04T00:33:35.480Z,30.31
2018-11-04T00:34:13.988Z,30.31
2018-11-04T00:34:51.925Z,30.36
2018-11-04T00:35:29.807Z,30.40
2018-11-04T00:36:07.693Z,30.40
2018-11-04T00:36:45.720Z,30.45
2018-11-04T00:37:23.931Z,30.45
2018-11-04T00:38:01.989Z,30.41
2018-11-04T00:38:39.912Z,30.49
2018-11-04T00:39:18.185Z,30.54
2018-11-04T00:39:56.028Z,30.55
2018-11-04T00:40:33.881Z,30.58
2018-11-04T00:41:11.783Z,30.62
2018-11-04T00:41:49.916Z,30.65
2018-11-04T00:42:28.031Z,30.69
2018-11-04T00:43:06.127Z,30.71
2018-11-04T00:43:44.028Z,30.76
2018-11-04T00:44:22.025Z,30.76
2018-11-04T00:45:00.023Z,30.85
2018-11-04T00:45:38.073Z,30.88
2018-11-04T00:46:16.033Z,30.92
2018-11-04T00:46:54.862Z,30.96
2018-11-04T00:47:33.116Z,31.00
2018-11-04T00:48:11.369Z,31.02
2018-11-04T00:48:49.446Z,31.02
2018-11-04T00:49:27.429Z,31.11
2018-11-04T00:50:05.594Z,31.15
2018-11-04T00:50:43.420Z,31.19
2018-11-04T00:51:21.326Z,31.23
2018-11-04T00:51:59.400Z,31.27
2018-11-04T00:52:37.457Z,31.29
2018-11-04T00:53:16.132Z,31.33
2018-11-04T00:53:54.008Z,31.35
2018-11-04T00:54:32.186Z,31.34
2018-11-04T00:55:11.232Z,31.42
2018-11-04T00:55:51.149Z,31.45
2018-11-04T00:56:29.135Z,31.49
2018-11-04T00:57:07.009Z,31.53
2018-11-04T00:57:45.247Z,31.56
2018-11-04T00:58:23.333Z,31.60
2018-11-04T00:59:16.442Z,31.62
2018-11-04T00:59:54.284Z,31.68
2018-11-04T01:00:32.341Z,31.71
2018-11-04T01:01:11.779Z,31.74
2018-11-04T01:01:49.987Z,31.76
2018-11-04T01:02:28.084Z,31.81
2018-11-04T01:03:06.042Z,31.83
2018-11-04T01:03:44.029Z,31.87
2018-11-04T01:04:21.956Z,31.89
2018-11-04T01:04:59.890Z,31.92
2018-11-04T01:05:37.840Z,31.93
2018-11-04T01:06:16.728Z,31.95
2018-11-04T01:06:54.689Z,31.97
2018-11-04T01:07:33.526Z,31.99
2018-11-04T01:08:11.541Z,31.99
2018-11-04T01:08:49.567Z,32.05
2018-11-04T01:09:27.692Z,32.08
2018-11-04T01:10:05.553Z,32.08
2018-11-04T01:10:43.541Z,32.10
2018-11-04T01:11:21.553Z,32.13
2018-11-04T01:11:59.651Z,32.16
2018-11-04T01:12:37.758Z,32.18
2018-11-04T01:13:15.948Z,32.19
2018-11-04T01:13:53.865Z,32.22
2018-11-04T01:14:32.421Z,32.24
2018-11-04T01:15:12.613Z,32.26
2018-11-04T01:15:50.481Z,32.26
2018-11-04T01:16:28.653Z,32.31
2018-11-04T01:17:06.675Z,32.34
2018-11-04T01:17:45.182Z,32.36
2018-11-04T01:18:23.090Z,32.38
2018-11-04T01:19:01.076Z,32.41
2018-11-04T01:19:39.102Z,32.43
2018-11-04T01:20:19.908Z,32.45
2018-11-04T01:20:58.324Z,32.46
2018-11-04T01:21:36.532Z,32.48
2018-11-04T01:22:14.496Z,32.53
2018-11-04T01:22:53.654Z,32.57
2018-11-04T01:23:31.493Z,32.61
2018-11-04T01:24:09.466Z,32.64
2018-11-04T01:24:47.479Z,32.69
2018-11-04T01:25:25.365Z,32.73
2018-11-04T01:26:03.362Z,32.75
2018-11-04T01:26:41.334Z,32.76
2018-11-04T01:27:19.513Z,32.75
2018-11-04T01:27:57.600Z,32.74
2018-11-04T01:28:35.461Z,32.75
2018-11-04T01:29:13.501Z,32.75
2018-11-04T01:29:51.428Z,32.80
2018-11-04T01:30:29.516Z,32.84
2018-11-04T01:31:07.605Z,32.85
2018-11-04T01:31:45.539Z,32.87
2018-11-04T01:32:23.458Z,32.89
2018-11-04T01:33:01.757Z,32.89
2018-11-04T01:33:39.769Z,32.90
2018-11-04T01:34:18.025Z,32.92
2018-11-04T01:34:56.001Z,32.90
2018-11-04T01:35:34.067Z,32.89
2018-11-04T01:36:12.009Z,32.92
2018-11-04T01:36:49.772Z,32.95
2018-11-04T01:37:27.577Z,32.98
2018-11-04T01:38:05.649Z,33.00
2018-11-04T01:38:43.777Z,33.01
2018-11-04T01:39:21.829Z,33.04
2018-11-04T01:39:59.833Z,33.05
2018-11-04T01:40:37.929Z,33.09
2018-11-04T01:41:15.881Z,33.11
2018-11-04T01:41:53.772Z,33.11
2018-11-04T01:42:31.841Z,33.14
2018-11-04T01:43:09.998Z,33.11
2018-11-04T01:43:47.928Z,33.11
2018-11-04T01:44:26.279Z,33.12
2018-11-04T01:45:04.265Z,33.14
2018-11-04T01:45:43.053Z,33.17
2018-11-04T01:46:21.084Z,33.17
2018-11-04T01:46:58.972Z,33.22
2018-11-04T01:47:37.661Z,33.20
2018-11-04T01:48:15.682Z,33.25
2018-11-04T01:48:54.221Z,33.27
2018-11-04T01:49:32.361Z,33.29
2018-11-04T01:50:12.002Z,33.24
2018-11-04T01:50:50.022Z,33.29
2018-11-04T01:51:28.107Z,33.26
2018-11-04T01:52:06.052Z,33.27
2018-11-04T01:52:43.997Z,33.27
2018-11-04T01:53:22.080Z,33.23
2018-11-04T01:54:00.231Z,33.23
2018-11-04T01:54:38.081Z,33.20
2018-11-04T01:55:16.265Z,33.23
2018-11-04T01:55:54.349Z,33.23
2018-11-04T01:56:32.457Z,33.24
2018-11-04T01:57:10.498Z,33.25
2018-11-04T01:57:48.397Z,33.25
2018-11-04T01:58:26.321Z,33.30
2018-11-04T01:59:04.550Z,33.32
2018-11-04T01:59:42.590Z,33.27
2018-11-04T02:00:21.029Z,33.30
2018-11-04T02:00:59.194Z,33.30
2018-11-04T02:01:38.894Z,33.32
2018-11-04T02:02:17.465Z,33.35
2018-11-04T02:02:55.727Z,33.38
2018-11-04T02:03:34.058Z,33.42
2018-11-04T02:04:14.769Z,33.43
2018-11-04T02:04:53.864Z,33.44
2018-11-04T02:05:35.578Z,33.47
2018-11-04T02:06:15.965Z,33.50
2018-11-04T02:06:54.017Z,33.53
2018-11-04T02:07:33.544Z,33.58
2018-11-04T02:08:12.845Z,33.66
2018-11-04T02:08:51.338Z,33.68
2018-11-04T02:09:29.883Z,33.73
2018-11-04T02:10:08.288Z,33.75
2018-11-04T02:10:46.236Z,33.78
2018-11-04T02:11:24.107Z,33.83
2018-11-04T02:12:02.034Z,33.86
2018-11-04T02:12:41.526Z,33.79
2018-11-04T02:13:19.869Z,33.58
2018-11-04T02:13:58.234Z,33.43
2018-11-04T02:14:36.551Z,33.31
2018-11-04T02:15:15.499Z,33.19
2018-11-04T02:15:53.509Z,33.09
2018-11-04T02:16:31.563Z,33.04
2018-11-04T02:17:09.694Z,32.91
2018-11-04T02:17:47.632Z,32.86
2018-11-04T02:18:25.640Z,32.82
2018-11-04T02:19:03.594Z,32.72
2018-11-04T02:19:41.727Z,32.64
2018-11-04T02:20:19.666Z,32.59
2018-11-04T02:20:57.769Z,32.55
2018-11-04T02:21:35.892Z,32.53
2018-11-04T02:22:14.732Z,32.50
2018-11-04T02:22:52.861Z,32.46
2018-11-04T02:23:30.868Z,32.44
2018-11-04T02:24:09.836Z,32.40
2018-11-04T02:24:47.850Z,32.37
2018-11-04T02:25:25.741Z,32.35
2018-11-04T02:26:04.002Z,32.34
2018-11-04T02:26:42.688Z,32.33
2018-11-04T02:27:20.635Z,32.32
2018-11-04T02:27:58.808Z,32.31
2018-11-04T02:28:36.764Z,32.31
2018-11-04T02:29:14.829Z,32.33
2018-11-04T02:29:52.744Z,32.33
2018-11-04T02:30:30.632Z,32.32
2018-11-04T02:31:09.134Z,32.31
2018-11-04T02:31:47.104Z,32.32
2018-11-04T02:32:24.983Z,32.33
2018-11-04T02:33:03.046Z,32.34
2018-11-04T02:33:40.973Z,32.37
2018-11-04T02:34:19.084Z,32.39
2018-11-04T02:34:57.040Z,32.41
2018-11-04T02:35:34.988Z,32.38
2018-11-04T02:39:15.332Z,32.32
2018-11-04T02:39:59.031Z,32.31
2018-11-04T02:40:37.096Z,32.31
2018-11-04T02:41:15.885Z,32.32
2018-11-04T02:41:55.233Z,32.32
2018-11-04T02:42:33.458Z,32.32
2018-11-04T02:43:11.374Z,32.33
2018-11-04T02:43:49.316Z,32.31
2018-11-04T02:44:27.235Z,32.32
2018-11-04T02:45:05.128Z,32.36
2018-11-04T02:45:43.132Z,32.40
2018-11-04T02:46:21.380Z,32.42
2018-11-04T02:46:59.510Z,32.43
2018-11-04T02:47:37.972Z,32.37
2018-11-04T02:48:15.953Z,32.32
2018-11-04T02:48:54.163Z,32.32
2018-11-04T02:49:32.032Z,32.31
2018-11-04T02:50:11.317Z,32.28
2018-11-04T02:50:49.272Z,32.25
2018-11-04T02:51:27.183Z,32.22
2018-11-04T02:52:05.182Z,32.22
2018-11-04T02:52:43.530Z,32.21
2018-11-04T02:53:21.416Z,32.22
2018-11-04T02:53:59.517Z,32.23
2018-11-04T02:54:37.368Z,32.24
2018-11-04T02:55:15.329Z,32.25
2018-11-04T02:55:53.394Z,32.27
2018-11-04T02:56:31.378Z,32.29
2018-11-04T02:57:09.441Z,32.30
2018-11-04T02:57:47.533Z,32.32
2018-11-04T02:58:25.424Z,32.34
2018-11-04T02:59:03.636Z,32.35
2018-11-04T02:59:41.877Z,32.43
2018-11-04T03:00:19.876Z,32.68
2018-11-04T03:00:57.923Z,32.82
2018-11-04T03:01:35.790Z,32.87
2018-11-04T03:02:14.140Z,32.91
2018-11-04T03:02:52.093Z,33.02
2018-11-04T03:03:30.350Z,33.20
2018-11-04T03:04:08.595Z,33.22
2018-11-04T03:04:46.575Z,33.30
2018-11-04T03:05:24.828Z,33.34
2018-11-04T03:06:02.780Z,33.46
2018-11-04T03:06:40.958Z,33.55
2018-11-04T03:07:19.008Z,33.63
2018-11-04T03:07:56.995Z,33.72
2018-11-04T03:08:34.897Z,33.78
2018-11-04T03:09:13.809Z,33.80
2018-11-04T03:09:51.951Z,33.87
2018-11-04T03:10:29.824Z,33.92
2018-11-04T03:11:07.804Z,34.00
2018-11-04T03:11:45.665Z,34.03
2018-11-04T03:12:23.722Z,34.08
2018-11-04T03:13:01.702Z,34.07
2018-11-04T03:13:39.657Z,34.08
2018-11-04T03:14:17.806Z,34.06
2018-11-04T03:14:55.897Z,33.96
2018-11-04T03:15:34.173Z,33.86
2018-11-04T03:16:12.422Z,33.87
2018-11-04T03:16:50.379Z,33.95
2018-11-04T03:17:28.636Z,33.99
2018-11-04T03:18:06.583Z,34.02
2018-11-04T03:18:44.643Z,33.98
2018-11-04T03:19:22.688Z,34.02
2018-11-04T03:20:00.736Z,34.05
2018-11-04T03:20:38.750Z,34.02
2018-11-04T03:21:17.314Z,33.96
2018-11-04T03:21:55.232Z,33.92
2018-11-04T03:22:33.651Z,33.91
2018-11-04T03:23:11.873Z,33.94
2018-11-04T03:23:49.826Z,33.96
2018-11-04T03:24:28.852Z,33.94
2018-11-04T03:25:06.834Z,33.93
2018-11-04T03:25:45.881Z,33.91
2018-11-04T03:26:23.816Z,33.91
2018-11-04T03:27:01.956Z,33.88
2018-11-04T03:27:40.169Z,33.88
2018-11-04T03:28:18.011Z,33.93
2018-11-04T03:28:56.337Z,33.97
2018-11-04T03:29:34.345Z,34.03
2018-11-04T03:30:12.960Z,34.02
2018-11-04T03:30:50.881Z,34.09
2018-11-04T03:31:28.847Z,34.16
2018-11-04T03:32:06.835Z,34.15
2018-11-04T03:32:44.978Z,34.20
2018-11-04T03:33:22.929Z,34.28
2018-11-04T03:34:01.034Z,34.34
2018-11-04T03:34:38.945Z,34.42
2018-11-04T03:35:16.923Z,34.46
2018-11-04T03:35:55.229Z,34.52
2018-11-04T03:36:33.196Z,34.55
2018-11-04T03:37:11.143Z,34.58
2018-11-04T03:37:49.160Z,34.63
2018-11-04T03:38:27.048Z,34.61
2018-11-04T03:39:05.743Z,34.61
2018-11-04T03:39:43.790Z,34.59
2018-11-04T03:40:21.864Z,34.65
2018-11-04T03:41:00.015Z,34.65
2018-11-04T03:41:38.010Z,34.67
2018-11-04T03:42:16.146Z,34.70
2018-11-04T03:42:54.258Z,34.70
2018-11-04T03:43:33.891Z,34.74
2018-11-04T03:44:11.687Z,34.73
2018-11-04T03:44:49.725Z,34.76
2018-11-04T03:45:27.647Z,34.75
2018-11-04T03:46:05.702Z,34.77
2018-11-04T03:46:43.695Z,34.75
2018-11-04T03:47:21.681Z,34.75
2018-11-04T03:47:59.822Z,34.77
2018-11-04T03:48:37.989Z,34.76
2018-11-04T03:49:15.892Z,34.80
2018-11-04T03:49:53.929Z,34.83
2018-11-04T03:50:31.900Z,34.85
2018-11-04T03:51:10.084Z,34.87
2018-11-04T03:51:48.074Z,34.87
2018-11-04T03:52:26.963Z,34.80
2018-11-04T03:53:08.693Z,34.83
2018-11-04T03:53:46.619Z,34.84
2018-11-04T03:54:26.530Z,34.88
2018-11-04T03:55:04.533Z,34.86
2018-11-04T03:55:42.360Z,34.90
2018-11-04T03:56:20.857Z,34.93
2018-11-04T03:56:58.698Z,34.93
2018-11-04T03:57:36.586Z,34.92
2018-11-04T03:58:17.431Z,34.94
2018-11-04T03:58:55.823Z,34.92
2018-11-04T03:59:33.867Z,34.92
2018-11-04T04:00:14.514Z,34.86
2018-11-04T04:00:52.660Z,34.91
2018-11-04T04:01:31.805Z,34.95
2018-11-04T04:02:10.061Z,34.97
2018-11-04T04:02:48.850Z,34.99
2018-11-04T04:03:26.799Z,35.03
2018-11-04T04:04:04.730Z,35.09
2018-11-04T04:04:43.609Z,35.08
2018-11-04T04:05:21.738Z,35.12
2018-11-04T04:06:00.436Z,35.13
2018-11-04T04:06:39.725Z,35.16
2018-11-04T04:07:18.406Z,35.16
2018-11-04T04:07:56.553Z,34.99
2018-11-04T04:08:34.726Z,34.85
2018-11-04T04:09:13.233Z,34.70
2018-11-04T04:09:51.196Z,34.58
2018-11-04T04:10:29.096Z,34.45
2018-11-04T04:11:07.125Z,34.39
2018-11-04T04:11:45.028Z,34.38
2018-11-04T04:12:23.025Z,34.44
2018-11-04T04:13:00.998Z,34.54
2018-11-04T04:13:39.921Z,34.64
2018-11-04T04:14:18.052Z,34.66
2018-11-04T04:14:55.929Z,34.74
2018-11-04T04:15:33.780Z,34.73
2018-11-04T04:16:11.732Z,34.74
2018-11-04T04:16:49.591Z,34.75
2018-11-04T04:17:28.392Z,34.61
2018-11-04T04:18:06.347Z,34.55
2018-11-04T04:18:44.459Z,34.47
2018-11-04T04:19:22.402Z,34.51
2018-11-04T04:20:00.610Z,34.59
2018-11-04T04:20:38.913Z,34.62
2018-11-04T04:21:17.117Z,34.57
2018-11-04T04:21:55.372Z,34.52
2018-11-04T04:22:33.519Z,34.62
2018-11-04T04:23:11.480Z,34.74
2018-11-04T04:23:49.432Z,34.82
2018-11-04T04:24:27.542Z,34.89
2018-11-04T04:25:05.896Z,34.82
2018-11-04T04:25:43.774Z,34.66
2018-11-04T04:26:21.771Z,34.59
2018-11-04T04:26:59.568Z,34.62
2018-11-04T04:27:37.561Z,34.69
2018-11-04T04:28:15.524Z,34.74
2018-11-04T04:28:53.440Z,34.72
2018-11-04T04:29:31.336Z,34.67
2018-11-04T04:30:11.888Z,34.69
2018-11-04T04:30:50.102Z,34.66
2018-11-04T04:31:28.274Z,34.58
2018-11-04T04:32:06.310Z,34.64
2018-11-04T04:32:44.304Z,34.68
2018-11-04T04:33:22.246Z,34.67
2018-11-04T04:34:00.260Z,34.65
2018-11-04T04:34:38.867Z,34.56
2018-11-04T04:35:16.888Z,34.60
2018-11-04T04:35:54.883Z,34.66
2018-11-04T04:36:32.918Z,34.74
2018-11-04T04:37:10.960Z,34.70
2018-11-04T04:37:49.200Z,34.71
2018-11-04T04:38:28.392Z,34.78
2018-11-04T04:39:06.704Z,34.74
2018-11-04T04:39:45.122Z,34.64
2018-11-04T04:40:23.041Z,34.65
2018-11-04T04:41:01.109Z,34.68
2018-11-04T04:41:40.012Z,34.61
2018-11-04T04:42:17.934Z,34.52
2018-11-04T04:42:55.853Z,34.46
2018-11-04T04:43:33.838Z,34.46
2018-11-04T04:44:11.822Z,34.39
2018-11-04T04:44:50.133Z,34.33
2018-11-04T04:45:28.024Z,34.26
2018-11-04T04:46:06.055Z,34.20
2018-11-04T04:46:44.021Z,34.14
2018-11-04T04:47:21.889Z,34.06
2018-11-04T04:48:00.158Z,34.01
2018-11-04T04:48:37.990Z,33.95
2018-11-04T04:49:16.552Z,33.93
2018-11-04T04:49:54.650Z,33.92
2018-11-04T04:50:32.661Z,33.89
2018-11-04T04:51:10.815Z,33.85
2018-11-04T04:51:48.720Z,33.84
2018-11-04T04:52:26.630Z,33.91
2018-11-04T04:53:04.684Z,33.99
2018-11-04T04:53:42.810Z,34.09
2018-11-04T04:54:20.867Z,34.14
2018-11-04T04:54:58.833Z,34.14
2018-11-04T04:55:36.883Z,34.14
2018-11-04T04:56:14.910Z,34.04
2018-11-04T04:56:53.217Z,34.02
2018-11-04T04:57:32.367Z,33.96
2018-11-04T04:58:11.171Z,33.92
2018-11-04T04:58:49.927Z,33.83
2018-11-04T04:59:29.808Z,33.70
2018-11-04T05:00:08.845Z,33.65
2018-11-04T05:00:47.749Z,33.59
2018-11-04T05:01:26.688Z,33.56
2018-11-04T05:02:05.703Z,33.53
2018-11-04T05:02:44.579Z,33.45
2018-11-04T05:03:23.038Z,33.39
2018-11-04T05:04:01.206Z,33.41
2018-11-04T05:04:40.078Z,33.41
2018-11-04T05:05:18.795Z,33.56
2018-11-04T05:05:56.982Z,33.73
2018-11-04T05:06:34.994Z,33.88
2018-11-04T05:07:12.802Z,34.01
2018-11-04T05:07:50.853Z,34.08
2018-11-04T05:08:28.882Z,34.19
2018-11-04T05:09:07.716Z,34.18
2018-11-04T05:09:46.217Z,34.16
2018-11-04T05:10:25.452Z,34.21
2018-11-04T05:11:04.855Z,34.34
2018-11-04T05:11:42.791Z,34.36
2018-11-04T05:12:20.971Z,34.30
2018-11-04T05:12:58.953Z,34.25
2018-11-04T05:13:36.817Z,34.20
2018-11-04T05:14:14.699Z,34.19
2018-11-04T05:14:52.626Z,34.17
2018-11-04T05:15:30.517Z,34.15
2018-11-04T05:16:08.766Z,34.13
2018-11-04T05:16:46.734Z,34.12
2018-11-04T05:17:24.848Z,34.12
2018-11-04T05:18:02.856Z,34.11
2018-11-04T05:18:40.706Z,34.10
2018-11-04T05:19:18.630Z,34.11
2018-11-04T05:19:56.530Z,34.10
2018-11-04T05:20:35.225Z,34.10
2018-11-04T05:21:14.598Z,34.08
2018-11-04T05:21:52.787Z,34.04
2018-11-04T05:22:30.737Z,34.02
2018-11-04T05:23:09.390Z,34.00
2018-11-04T05:23:47.486Z,33.97
2018-11-04T05:24:25.989Z,33.92
2018-11-04T05:25:04.057Z,33.89
2018-11-04T05:25:41.996Z,33.83
2018-11-04T05:26:19.964Z,33.82
2018-11-04T05:26:57.980Z,33.77
2018-11-04T05:27:35.936Z,33.76
2018-11-04T05:28:14.674Z,33.72
2018-11-04T05:28:53.596Z,33.69
2018-11-04T05:29:31.630Z,33.65
2018-11-04T05:30:15.122Z,33.60
2018-11-04T05:30:53.170Z,33.60
2018-11-04T05:31:31.201Z,33.60
2018-11-04T05:32:09.277Z,33.56
2018-11-04T05:32:47.218Z,33.55
2018-11-04T05:33:25.117Z,33.56
2018-11-04T05:34:03.049Z,33.55
2018-11-04T05:34:41.239Z,33.57
2018-11-04T05:35:19.075Z,33.57
2018-11-04T05:35:57.027Z,33.56
2018-11-04T05:36:35.017Z,33.55
2018-11-04T05:37:13.061Z,33.55
2018-11-04T05:37:51.129Z,33.53
2018-11-04T05:38:29.132Z,33.51
2018-11-04T05:39:07.293Z,33.52
2018-11-04T05:39:45.172Z,33.51
2018-11-04T05:40:23.098Z,33.51
2018-11-04T05:41:01.000Z,33.51
2018-11-04T05:41:39.091Z,33.48
2018-11-04T05:42:17.028Z,33.46
2018-11-04T05:42:55.267Z,33.43
2018-11-04T05:43:33.418Z,33.37
2018-11-04T05:44:11.462Z,33.35
2018-11-04T05:44:50.370Z,33.32
2018-11-04T05:45:28.388Z,33.29
2018-11-04T05:46:06.252Z,33.25
2018-11-04T05:46:45.237Z,33.23
2018-11-04T05:47:23.150Z,33.20
2018-11-04T05:48:01.126Z,33.16
2018-11-04T05:48:39.082Z,33.14
2018-11-04T05:49:17.064Z,33.10
2018-11-04T05:49:55.354Z,33.06
2018-11-04T05:50:33.375Z,33.04
2018-11-04T05:51:12.043Z,33.01
2018-11-04T05:51:50.157Z,32.95
2018-11-04T05:52:28.478Z,32.92
2018-11-04T05:53:06.780Z,32.90
2018-11-04T05:53:45.004Z,32.86
2018-11-04T05:54:23.095Z,32.84
2018-11-04T05:55:01.041Z,32.78
2018-11-04T05:55:38.991Z,32.71
2018-11-04T05:56:18.842Z,32.69
2018-11-04T05:56:56.877Z,32.66
2018-11-04T05:57:34.993Z,32.63
2018-11-04T05:58:13.180Z,32.61
2018-11-04T05:58:51.256Z,32.55
2018-11-04T05:59:29.436Z,32.51
2018-11-04T06:00:07.847Z,32.46
2018-11-04T06:00:45.992Z,32.40
2018-11-04T06:01:24.672Z,32.38
2018-11-04T06:02:03.906Z,32.34
2018-11-04T06:02:42.343Z,32.32
2018-11-04T06:03:20.503Z,32.30
2018-11-04T06:03:59.472Z,32.27
2018-11-04T06:04:37.892Z,32.25
2018-11-04T06:05:16.148Z,32.22
2018-11-04T06:05:54.101Z,32.20
2018-11-04T06:06:32.076Z,32.18
2018-11-04T06:07:10.367Z,32.16
2018-11-04T06:07:48.392Z,32.17
2018-11-04T06:08:27.546Z,32.14
2018-11-04T06:09:06.874Z,32.11
2018-11-04T06:09:45.088Z,32.10
2018-11-04T06:10:23.249Z,32.06
2018-11-04T06:11:01.292Z,32.04
2018-11-04T06:11:39.388Z,32.03
2018-11-04T06:12:17.379Z,32.01
2018-11-04T06:12:55.630Z,32.01
2018-11-04T06:13:33.688Z,31.99
2018-11-04T06:14:12.156Z,31.97
2018-11-04T06:14:50.754Z,31.98
2018-11-04T06:15:30.945Z,31.97
2018-11-04T06:16:09.755Z,31.94
2018-11-04T06:16:49.072Z,31.93
2018-11-04T06:17:27.336Z,31.92
2018-11-04T06:18:05.649Z,31.89
2018-11-04T06:18:44.188Z,31.89
2018-11-04T06:19:22.466Z,31.88
2018-11-04T06:20:01.109Z,31.85
2018-11-04T06:20:39.577Z,31.84
2018-11-04T06:21:17.813Z,31.83
2018-11-04T06:21:57.289Z,31.80
2018-11-04T06:22:35.416Z,31.79
2018-11-04T06:23:13.889Z,31.75
2018-11-04T06:23:51.957Z,31.70
2018-11-04T06:24:29.950Z,31.67
2018-11-04T06:25:08.095Z,31.62
2018-11-04T06:25:46.698Z,31.56
2018-11-04T06:26:24.652Z,31.49
2018-11-04T06:27:03.709Z,31.43
2018-11-04T06:27:41.931Z,31.36
2018-11-04T06:28:20.524Z,31.28
2018-11-04T06:28:58.634Z,31.25
2018-11-04T06:29:36.584Z,31.19
2018-11-04T06:30:15.678Z,31.13
2018-11-04T06:30:54.090Z,31.06
2018-11-04T06:31:32.172Z,31.02
2018-11-04T06:32:10.410Z,30.98
2018-11-04T06:32:48.423Z,30.92
2018-11-04T06:33:26.530Z,30.89
2018-11-04T06:34:05.578Z,30.85
2018-11-04T06:34:43.972Z,30.81
2018-11-04T06:35:21.960Z,30.75
2018-11-04T06:36:00.162Z,30.73
2018-11-04T06:36:38.383Z,30.70
2018-11-04T06:37:16.588Z,30.68
2018-11-04T06:37:54.772Z,30.65
2018-11-04T06:38:33.528Z,30.63
2018-11-04T06:39:13.155Z,30.62
2018-11-04T06:39:51.266Z,30.58
2018-11-04T06:40:29.371Z,30.57
2018-11-04T06:41:07.599Z,30.46
2018-11-04T06:41:46.010Z,30.54
2018-11-04T06:42:24.189Z,30.52
2018-11-04T06:43:02.432Z,30.49
2018-11-04T06:43:41.032Z,30.45
2018-11-04T06:44:19.178Z,30.45
2018-11-04T06:44:58.176Z,30.43
2018-11-04T06:45:37.024Z,30.41
2018-11-04T06:46:15.109Z,30.36
2018-11-04T06:46:53.731Z,30.37
2018-11-04T06:47:31.733Z,30.37
2018-11-04T06:48:10.133Z,30.36
2018-11-04T06:48:48.309Z,30.31
2018-11-04T06:49:26.478Z,30.33
2018-11-04T06:50:04.486Z,30.34
2018-11-04T06:50:42.430Z,30.31
2018-11-04T06:51:20.512Z,30.29
2018-11-04T06:51:58.702Z,30.28
2018-11-04T06:52:36.809Z,30.27
2018-11-04T06:53:15.536Z,30.24
2018-11-04T06:53:53.654Z,30.24
2018-11-04T06:54:31.676Z,30.23
2018-11-04T06:55:10.710Z,30.21
2018-11-04T06:55:48.773Z,30.20
2018-11-04T06:56:26.851Z,30.18
2018-11-04T06:57:04.910Z,30.19
2018-11-04T06:57:43.090Z,30.13
2018-11-04T06:58:21.106Z,30.13
2018-11-04T06:58:59.593Z,30.14
2018-11-04T06:59:37.548Z,30.12
2018-11-04T07:00:15.625Z,30.04
2018-11-04T07:00:53.846Z,30.09
2018-11-04T07:01:31.945Z,30.07
2018-11-04T07:02:10.021Z,30.08
2018-11-04T07:02:48.163Z,30.06
2018-11-04T07:03:26.797Z,30.04
2018-11-04T07:04:15.870Z,30.03
2018-11-04T07:04:54.257Z,30.00
2018-11-04T07:05:32.512Z,30.01
2018-11-04T07:06:10.549Z,30.00
2018-11-04T07:06:48.710Z,30.00
2018-11-04T07:07:26.876Z,29.98
2018-11-04T07:08:04.892Z,30.00
2018-11-04T07:08:44.084Z,30.00
2018-11-04T07:09:22.044Z,29.99
2018-11-04T07:10:00.353Z,30.02
2018-11-04T07:10:38.796Z,30.00
2018-11-04T07:11:16.806Z,30.02
2018-11-04T07:11:54.749Z,30.01
2018-11-04T07:12:33.048Z,30.03
2018-11-04T07:13:11.095Z,30.04
2018-11-04T07:13:49.082Z,30.01
2018-11-04T07:14:27.457Z,30.04
2018-11-04T07:15:05.505Z,30.04
2018-11-04T07:15:43.855Z,30.01
2018-11-04T07:16:21.900Z,30.06
2018-11-04T07:17:00.858Z,30.05
2018-11-04T07:17:38.813Z,30.02
2018-11-04T07:18:16.775Z,30.07
2018-11-04T07:18:55.106Z,30.07
2018-11-04T07:19:32.921Z,30.06
2018-11-04T07:20:11.686Z,30.06
2018-11-04T07:20:49.859Z,30.05
2018-11-04T07:21:27.708Z,30.02
2018-11-04T07:22:05.668Z,30.05
2018-11-04T07:22:43.810Z,30.05
2018-11-04T07:23:21.795Z,30.05
2018-11-04T07:24:00.466Z,30.05
2018-11-04T07:24:38.441Z,30.04
2018-11-04T07:25:16.536Z,30.05
2018-11-04T07:25:54.467Z,30.05
2018-11-04T07:26:32.368Z,30.01
2018-11-04T07:27:10.777Z,30.05
2018-11-04T07:27:49.736Z,30.02
2018-11-04T07:28:27.855Z,30.04
2018-11-04T07:29:05.859Z,30.00
2018-11-04T07:29:44.036Z,30.06
2018-11-04T07:30:22.052Z,30.03
2018-11-04T07:31:00.067Z,30.00
2018-11-04T07:31:38.147Z,30.02
2018-11-04T07:32:16.224Z,30.02
2018-11-04T07:32:54.458Z,30.01
2018-11-04T07:33:32.621Z,30.00
2018-11-04T07:34:12.293Z,30.00
2018-11-04T07:34:50.663Z,29.97
2018-11-04T07:35:29.584Z,29.97
2018-11-04T07:36:07.907Z,29.98
2018-11-04T07:36:45.908Z,29.97
2018-11-04T07:37:24.421Z,29.96
2018-11-04T07:38:02.405Z,29.97
2018-11-04T07:38:40.236Z,29.93
2018-11-04T07:39:18.190Z,29.95
2018-11-04T07:39:56.159Z,29.94
2018-11-04T07:40:34.348Z,29.94
2018-11-04T07:41:12.248Z,29.95
2018-11-04T07:41:50.950Z,29.96
2018-11-04T07:42:29.412Z,29.96
2018-11-04T07:43:07.253Z,29.97
2018-11-04T07:43:45.183Z,29.98
2018-11-04T07:44:24.437Z,29.98
2018-11-04T07:45:02.475Z,30.00
2018-11-04T07:45:40.540Z,30.01
2018-11-04T07:46:18.612Z,30.02
2018-11-04T07:46:56.583Z,30.02
2018-11-04T07:47:34.505Z,30.02
2018-11-04T07:48:12.385Z,29.99
2018-11-04T07:48:51.011Z,30.03
2018-11-04T07:49:28.964Z,30.03
2018-11-04T07:50:07.150Z,30.03
2018-11-04T07:50:45.170Z,30.04
2018-11-04T07:51:24.115Z,30.04
2018-11-04T07:52:02.063Z,30.06
2018-11-04T07:52:40.079Z,30.01
2018-11-04T07:53:18.041Z,30.08
2018-11-04T07:53:56.322Z,30.09
2018-11-04T07:54:34.336Z,30.09
2018-11-04T07:55:12.415Z,30.12
2018-11-04T07:55:50.312Z,30.12
2018-11-04T07:56:30.021Z,30.14
2018-11-04T07:57:08.116Z,30.16
2018-11-04T07:57:50.142Z,30.18
2018-11-04T07:58:28.048Z,30.20
2018-11-04T07:59:06.479Z,30.20
2018-11-04T07:59:44.437Z,30.22
2018-11-04T08:00:22.300Z,30.23
2018-11-04T08:01:01.302Z,30.24
2018-11-04T08:01:39.428Z,30.25
2018-11-04T08:02:17.571Z,30.25
2018-11-04T08:02:55.623Z,30.26
2018-11-04T08:03:33.625Z,30.27
2018-11-04T08:04:11.751Z,30.27
2018-11-04T08:04:50.557Z,30.28
2018-11-04T08:05:28.535Z,30.27
2018-11-04T08:06:06.437Z,30.30
2018-11-04T08:06:44.451Z,30.28
2018-11-04T08:07:22.508Z,30.28
2018-11-04T08:08:00.522Z,30.29
2018-11-04T08:08:38.410Z,30.29
2018-11-04T08:09:16.440Z,30.30
2018-11-04T08:09:54.363Z,30.31
2018-11-04T08:10:32.241Z,30.27
2018-11-04T08:11:10.244Z,30.32
2018-11-04T08:11:48.195Z,30.32
2018-11-04T08:12:26.100Z,30.34
2018-11-04T08:13:04.122Z,30.30
2018-11-04T08:13:42.359Z,30.35
2018-11-04T08:14:20.380Z,30.35
2018-11-04T08:15:04.413Z,30.36
2018-11-04T08:15:42.490Z,30.37
2018-11-04T08:16:20.475Z,30.38